createdAt,value
2023-01-11T00:00:01.752Z,20.17
2023-01-11T00:01:05.531Z,19.75
2023-01-11T00:02:08.030Z,18.80
2023-01-11T00:03:18.292Z,19.00
2023-01-11T00:04:23.389Z,19.45
2023-01-11T00:05:27.204Z,18.38
2023-01-11T00:06:30.649Z,17.98
2023-01-11T00:07:33.176Z,17.90
2023-01-11T00:08:43.272Z,17.30
2023-01-11T00:09:47.828Z,18.35
2023-01-11T00:10:51.242Z,16.27
2023-01-11T00:11:55.158Z,17.42
2023-01-11T00:12:58.572Z,17.45
2023-01-11T00:14:07.316Z,16.85
2023-01-11T00:15:11.612Z,16.42
2023-01-11T00:16:14.605Z,17.13
2023-01-11T00:17:18.087Z,16.45
2023-01-11T00:18:21.554Z,17.55
2023-01-11T00:19:30.280Z,16.85
2023-01-11T00:20:41.281Z,15.20
2023-01-11T00:21:43.744Z,16.42
2023-01-11T00:22:47.165Z,16.15
2023-01-11T00:24:03.272Z,16.48
2023-01-11T00:25:13.520Z,15.38
2023-01-11T00:26:16.019Z,14.77
2023-01-11T00:27:19.396Z,14.13
2023-01-11T00:28:21.857Z,14.10
2023-01-11T00:29:32.278Z,14.15
2023-01-11T00:30:35.919Z,14.63
2023-01-11T00:31:39.302Z,14.30
2023-01-11T00:32:41.804Z,13.57
2023-01-11T00:33:52.276Z,13.65
2023-01-11T00:34:54.760Z,14.88
2023-01-11T00:35:59.468Z,14.63
2023-01-11T00:37:02.031Z,15.23
2023-01-11T00:38:05.495Z,15.30
2023-01-11T00:39:14.286Z,14.65
2023-01-11T00:40:17.756Z,15.23
2023-01-11T00:41:39.764Z,15.77
2023-01-11T00:43:01.107Z,14.07
2023-01-11T00:44:29.330Z,14.63
2023-01-11T00:45:57.338Z,14.02
2023-01-11T00:47:18.435Z,14.77
2023-01-11T00:48:21.877Z,14.73
2023-01-11T00:49:24.653Z,13.80
2023-01-11T00:50:36.302Z,13.60
2023-01-11T00:51:40.174Z,14.05
2023-01-11T00:52:43.567Z,14.07
2023-01-11T00:53:48.531Z,14.25
2023-01-11T00:54:51.974Z,14.30
2023-01-11T00:56:01.643Z,13.80
2023-01-11T00:57:06.463Z,14.75
2023-01-11T00:58:08.974Z,14.52
2023-01-11T00:59:12.736Z,14.75
2023-01-11T01:00:15.470Z,15.07
2023-01-11T01:01:25.352Z,15.85
2023-01-11T01:02:34.328Z,15.32
2023-01-11T01:03:37.775Z,13.70
2023-01-11T01:04:40.654Z,13.57
2023-01-11T01:05:44.125Z,13.82
2023-01-11T01:06:48.033Z,14.18
2023-01-11T01:07:58.294Z,14.60
2023-01-11T01:09:01.358Z,13.85
2023-01-11T01:10:04.962Z,14.32
2023-01-11T01:11:07.410Z,14.48
2023-01-11T01:12:10.815Z,13.85
2023-01-11T01:13:38.287Z,14.93
2023-01-11T01:14:42.306Z,13.10
2023-01-11T01:15:44.871Z,12.48
2023-01-11T01:16:48.477Z,13.07
2023-01-11T01:18:00.302Z,13.02
2023-01-11T01:19:03.712Z,12.40
2023-01-11T01:20:06.708Z,12.95
2023-01-11T01:21:10.086Z,13.35
2023-01-11T01:22:20.305Z,12.05
2023-01-11T01:23:30.437Z,12.20
2023-01-11T01:24:40.767Z,12.38
2023-01-11T01:25:43.210Z,12.45
2023-01-11T01:26:46.641Z,12.30
2023-01-11T01:27:55.283Z,12.98
2023-01-11T01:28:58.778Z,12.55
2023-01-11T01:30:01.306Z,12.40
2023-01-11T01:31:04.919Z,12.07
2023-01-11T01:32:07.414Z,13.10
2023-01-11T01:33:17.293Z,12.27
2023-01-11T01:34:19.761Z,13.95
2023-01-11T01:35:29.765Z,12.25
2023-01-11T01:36:32.207Z,12.45
2023-01-11T01:37:36.939Z,12.73
2023-01-11T01:38:39.468Z,12.88
2023-01-11T01:39:42.897Z,11.65
2023-01-11T01:40:52.299Z,13.27
2023-01-11T01:41:55.711Z,13.52
2023-01-11T01:42:58.153Z,12.68
2023-01-11T01:44:02.255Z,12.48
2023-01-11T01:45:13.323Z,13.00
2023-01-11T01:46:16.802Z,12.93
2023-01-11T01:47:19.606Z,12.68
2023-01-11T01:48:25.371Z,13.35
2023-01-11T01:49:31.887Z,13.95
2023-01-11T01:50:44.353Z,12.73
2023-01-11T01:51:49.025Z,12.15
2023-01-11T01:52:55.035Z,13.32
2023-01-11T01:53:58.565Z,13.20
2023-01-11T01:55:03.939Z,12.40
2023-01-11T01:56:16.299Z,13.35
2023-01-11T01:57:21.210Z,11.73
2023-01-11T01:58:26.644Z,12.35
2023-01-11T01:59:31.489Z,13.07
2023-01-11T02:00:40.289Z,12.07
2023-01-11T02:01:49.966Z,12.40
2023-01-11T02:02:59.399Z,12.55
2023-01-11T02:04:04.689Z,12.50
2023-01-11T02:05:08.443Z,13.43
2023-01-11T02:06:12.422Z,12.30
2023-01-11T02:07:15.802Z,13.73
2023-01-11T02:08:30.348Z,15.18
2023-01-11T02:09:36.777Z,14.07
2023-01-11T02:10:40.469Z,14.32
2023-01-11T02:11:43.571Z,14.15
2023-01-11T02:12:56.296Z,13.75
2023-01-11T02:14:00.378Z,13.90
2023-01-11T02:15:04.362Z,14.68
2023-01-11T02:16:10.105Z,15.15
2023-01-11T02:17:20.316Z,13.70
2023-01-11T02:18:23.724Z,14.23
2023-01-11T02:19:36.044Z,13.70
2023-01-11T02:20:59.278Z,13.52
2023-01-11T02:22:14.225Z,12.82
2023-01-11T02:23:39.480Z,13.13
2023-01-11T02:25:14.302Z,12.32
2023-01-11T02:26:35.345Z,11.80
2023-01-11T02:28:04.370Z,12.27
2023-01-11T02:29:13.140Z,12.02
2023-01-11T02:30:21.456Z,12.00
2023-01-11T02:31:30.548Z,11.55
2023-01-11T02:32:35.982Z,12.25
2023-01-11T02:33:49.292Z,12.95
2023-01-11T02:34:57.635Z,12.95
2023-01-11T02:36:06.537Z,12.23
2023-01-11T02:37:20.320Z,11.07
2023-01-11T02:38:33.304Z,12.27
2023-01-11T02:39:41.570Z,12.68
2023-01-11T02:40:48.764Z,12.98
2023-01-11T02:42:15.704Z,13.18
2023-01-11T02:43:44.335Z,12.85
2023-01-11T02:45:06.398Z,11.95
2023-01-11T02:46:10.835Z,12.30
2023-01-11T02:47:18.652Z,13.15
2023-01-11T02:48:27.370Z,12.40
2023-01-11T02:49:42.315Z,13.23
2023-01-11T02:50:47.229Z,13.18
2023-01-11T02:51:53.952Z,13.60
2023-01-11T02:52:59.370Z,11.90
2023-01-11T02:54:11.355Z,12.57
2023-01-11T02:55:15.956Z,12.90
2023-01-11T02:56:21.084Z,12.52
2023-01-11T02:57:23.817Z,13.18
2023-01-11T02:58:29.068Z,11.20
2023-01-11T02:59:39.286Z,12.48
2023-01-11T03:00:44.481Z,12.13
2023-01-11T03:01:47.615Z,11.70
2023-01-11T03:03:06.127Z,12.25
2023-01-11T03:04:23.496Z,10.02
2023-01-11T03:05:32.324Z,10.68
2023-01-11T03:06:36.796Z,11.20
2023-01-11T03:07:46.286Z,10.43
2023-01-11T03:08:59.292Z,10.20
2023-01-11T03:10:15.301Z,9.75
2023-01-11T03:11:45.991Z,10.57
2023-01-11T03:12:55.282Z,9.77
2023-01-11T03:14:04.041Z,9.45
2023-01-11T03:15:10.797Z,10.68
2023-01-11T03:16:35.319Z,11.30
2023-01-11T03:17:50.301Z,11.10
2023-01-11T03:18:55.928Z,11.48
2023-01-11T03:20:02.420Z,10.43
2023-01-11T03:21:12.752Z,11.18
2023-01-11T03:22:26.328Z,11.13
2023-01-11T03:23:32.965Z,11.15
2023-01-11T03:24:56.296Z,12.23
2023-01-11T03:26:01.051Z,11.75
2023-01-11T03:27:20.321Z,11.18
2023-01-11T03:28:33.341Z,10.82
2023-01-11T03:29:39.311Z,10.75
2023-01-11T03:30:48.400Z,11.68
2023-01-11T03:31:55.195Z,12.38
2023-01-11T03:33:02.341Z,12.35
2023-01-11T03:34:19.330Z,11.63
2023-01-11T03:35:28.019Z,13.05
2023-01-11T03:36:34.708Z,12.15
2023-01-11T03:37:40.046Z,13.63
2023-01-11T03:38:45.041Z,12.90
2023-01-11T03:39:57.356Z,11.82
2023-01-11T03:41:04.084Z,13.48
2023-01-11T03:42:09.507Z,12.80
2023-01-11T03:43:13.612Z,12.70
2023-01-11T03:44:18.219Z,12.98
2023-01-11T03:45:27.309Z,12.90
2023-01-11T03:46:39.383Z,12.98
2023-01-11T03:47:43.271Z,12.63
2023-01-11T03:48:48.511Z,11.80
2023-01-11T03:49:59.328Z,12.00
2023-01-11T03:51:04.238Z,12.18
2023-01-11T03:52:08.416Z,12.02
2023-01-11T03:53:12.332Z,12.75
2023-01-11T03:54:16.629Z,11.80
2023-01-11T03:55:26.307Z,12.00
2023-01-11T03:56:31.222Z,10.93
2023-01-11T03:57:35.522Z,11.93
2023-01-11T03:58:38.013Z,11.70
2023-01-11T03:59:48.318Z,11.07
2023-01-11T04:00:58.430Z,11.35
2023-01-11T04:02:02.635Z,9.98
2023-01-11T04:03:06.763Z,10.55
2023-01-11T04:04:10.539Z,9.65
2023-01-11T04:05:13.197Z,9.80
2023-01-11T04:06:23.341Z,10.57
2023-01-11T04:07:25.891Z,9.85
2023-01-11T04:08:31.117Z,9.93
2023-01-11T04:09:33.723Z,10.65
2023-01-11T04:10:37.201Z,10.55
2023-01-11T04:11:46.325Z,9.40
2023-01-11T04:12:56.336Z,9.07
2023-01-11T04:13:58.921Z,9.32
2023-01-11T04:15:03.249Z,9.50
2023-01-11T04:16:05.839Z,9.27
2023-01-11T04:17:09.299Z,9.02
2023-01-11T04:18:19.318Z,8.80
2023-01-11T04:19:22.735Z,8.70
2023-01-11T04:20:25.177Z,9.73
2023-01-11T04:21:28.523Z,9.77
2023-01-11T04:22:37.346Z,10.52
2023-01-11T04:23:40.848Z,10.13
2023-01-11T04:25:03.299Z,9.68
2023-01-11T04:26:07.043Z,8.63
2023-01-11T04:27:09.473Z,9.63
2023-01-11T04:28:19.333Z,9.38
2023-01-11T04:29:21.794Z,9.40
2023-01-11T04:30:25.303Z,8.70
2023-01-11T04:31:27.951Z,9.82
2023-01-11T04:32:31.450Z,9.95
2023-01-11T04:33:41.320Z,9.82
2023-01-11T04:34:44.836Z,9.95
2023-01-11T04:35:47.628Z,8.70
2023-01-11T04:36:51.046Z,9.73
2023-01-11T04:37:54.638Z,9.80
2023-01-11T04:39:04.357Z,10.43
2023-01-11T04:40:07.427Z,9.60
2023-01-11T04:41:27.818Z,9.68
2023-01-11T04:42:31.255Z,9.38
2023-01-11T04:43:33.690Z,9.55
2023-01-11T04:44:42.326Z,8.88
2023-01-11T04:45:45.839Z,9.48
2023-01-11T04:46:48.490Z,10.35
2023-01-11T04:47:56.479Z,9.40
2023-01-11T04:49:06.382Z,8.63
2023-01-11T04:50:11.936Z,8.63
2023-01-11T04:51:15.643Z,9.45
2023-01-11T04:52:20.045Z,9.27
2023-01-11T04:53:22.469Z,9.25
2023-01-11T04:54:32.365Z,9.57
2023-01-11T04:55:35.797Z,9.50
2023-01-11T04:56:38.299Z,9.60
2023-01-11T04:57:41.671Z,9.70
2023-01-11T04:58:44.449Z,9.57
2023-01-11T04:59:54.330Z,10.20
2023-01-11T05:01:03.351Z,9.38
2023-01-11T05:02:06.850Z,10.00
2023-01-11T05:03:10.580Z,9.20
2023-01-11T05:04:15.393Z,9.45
2023-01-11T05:05:18.040Z,9.20
2023-01-11T05:06:29.363Z,8.93
2023-01-11T05:07:31.988Z,9.45
2023-01-11T05:08:35.603Z,9.48
2023-01-11T05:09:38.116Z,8.77
2023-01-11T05:10:41.575Z,7.97
2023-01-11T05:11:50.384Z,9.32
2023-01-11T05:12:53.795Z,8.75
2023-01-11T05:13:59.926Z,9.32
2023-01-11T05:15:03.403Z,8.90
2023-01-11T05:16:06.240Z,8.73
2023-01-11T05:17:16.360Z,8.43
2023-01-11T05:18:25.374Z,9.07
2023-01-11T05:19:30.169Z,8.85
2023-01-11T05:20:32.648Z,9.25
2023-01-11T05:21:37.073Z,8.63
2023-01-11T05:22:39.568Z,9.30
2023-01-11T05:23:49.390Z,8.95
2023-01-11T05:24:59.536Z,8.80
2023-01-11T05:26:02.115Z,8.70
2023-01-11T05:27:06.243Z,8.55
2023-01-11T05:28:08.743Z,8.10
2023-01-11T05:29:20.379Z,8.43
2023-01-11T05:30:23.962Z,7.97
2023-01-11T05:31:26.780Z,8.40
2023-01-11T05:32:30.246Z,8.13
2023-01-11T05:33:32.975Z,9.27
2023-01-11T05:34:44.402Z,8.60
2023-01-11T05:35:46.942Z,9.00
2023-01-11T05:36:50.353Z,8.70
2023-01-11T05:37:52.823Z,8.70
2023-01-11T05:38:58.232Z,7.50
2023-01-11T05:40:07.380Z,8.10
2023-01-11T05:41:11.741Z,8.27
2023-01-11T05:42:14.239Z,7.90
2023-01-11T05:43:17.662Z,7.97
2023-01-11T05:44:38.679Z,8.40
2023-01-11T05:45:47.382Z,7.80
2023-01-11T05:46:50.212Z,7.60
2023-01-11T05:47:54.907Z,7.00
2023-01-11T05:48:59.224Z,8.00
2023-01-11T05:50:03.986Z,8.02
2023-01-11T05:51:13.379Z,7.43
2023-01-11T05:52:16.783Z,8.02
2023-01-11T05:53:19.448Z,6.63
2023-01-11T05:54:22.974Z,7.28
2023-01-11T05:55:32.343Z,7.70
2023-01-11T05:56:42.573Z,7.20
2023-01-11T05:57:46.248Z,7.47
2023-01-11T05:58:50.033Z,7.30
2023-01-11T05:59:53.503Z,7.18
2023-01-11T06:00:56.581Z,7.63
2023-01-11T06:02:06.506Z,7.70
2023-01-11T06:03:09.053Z,6.90
2023-01-11T06:04:12.608Z,7.35
2023-01-11T06:05:17.390Z,7.78
2023-01-11T06:06:28.417Z,6.97
2023-01-11T06:07:30.948Z,7.00
2023-01-11T06:08:41.367Z,7.28
2023-01-11T06:09:44.839Z,7.15
2023-01-11T06:10:51.655Z,6.93
2023-01-11T06:11:55.096Z,7.40
2023-01-11T06:13:19.392Z,6.63
2023-01-11T06:14:22.809Z,7.30
2023-01-11T06:15:25.360Z,7.00
2023-01-11T06:16:29.009Z,7.40
2023-01-11T06:17:31.649Z,7.30
2023-01-11T06:18:42.369Z,6.88
2023-01-11T06:19:44.969Z,6.43
2023-01-11T06:20:51.828Z,6.80
2023-01-11T06:21:55.269Z,7.03
2023-01-11T06:22:57.751Z,6.70
2023-01-11T06:24:07.382Z,6.80
2023-01-11T06:25:23.378Z,6.85
2023-01-11T06:26:26.864Z,6.57
2023-01-11T06:27:29.527Z,7.18
2023-01-11T06:28:39.361Z,6.47
2023-01-11T06:29:42.793Z,6.78
2023-01-11T06:30:51.463Z,6.07
2023-01-11T06:31:54.899Z,6.15
2023-01-11T06:33:05.330Z,7.10
2023-01-11T06:34:08.954Z,6.53
2023-01-11T06:35:19.449Z,6.95
2023-01-11T06:36:24.214Z,7.13
2023-01-11T06:37:26.746Z,6.53
2023-01-11T06:38:30.308Z,6.38
2023-01-11T06:39:32.826Z,6.18
2023-01-11T06:40:43.400Z,5.78
2023-01-11T06:41:46.861Z,6.13
2023-01-11T06:42:49.419Z,5.60
2023-01-11T06:43:53.054Z,5.90
2023-01-11T06:44:55.595Z,5.32
2023-01-11T06:46:06.415Z,5.43
2023-01-11T06:47:09.052Z,5.20
2023-01-11T06:48:12.452Z,6.00
2023-01-11T06:49:16.067Z,5.03
2023-01-11T06:50:18.728Z,5.22
2023-01-11T06:51:28.427Z,4.97
2023-01-11T06:52:32.141Z,5.20
2023-01-11T06:53:35.620Z,4.95
2023-01-11T06:54:38.106Z,4.57
2023-01-11T06:55:41.525Z,5.50
2023-01-11T06:56:51.386Z,4.70
2023-01-11T06:57:54.182Z,5.00
2023-01-11T06:58:57.661Z,5.88
2023-01-11T07:00:00.444Z,5.35
2023-01-11T07:01:10.391Z,4.90
2023-01-11T07:02:13.981Z,5.15
2023-01-11T07:03:24.539Z,5.00
2023-01-11T07:04:27.999Z,5.30
2023-01-11T07:05:30.447Z,5.25
2023-01-11T07:06:36.029Z,4.80
2023-01-11T07:07:46.371Z,5.03
2023-01-11T07:08:49.765Z,4.97
2023-01-11T07:09:56.112Z,5.20
2023-01-11T07:10:59.573Z,4.90
2023-01-11T07:12:08.337Z,5.55
2023-01-11T07:13:11.904Z,5.30
2023-01-11T07:14:19.882Z,5.15
2023-01-11T07:15:23.639Z,5.32
2023-01-11T07:16:27.140Z,5.10
2023-01-11T07:17:36.407Z,5.03
2023-01-11T07:18:39.861Z,5.05
2023-01-11T07:19:49.372Z,5.63
2023-01-11T07:20:52.843Z,5.20
2023-01-11T07:21:56.313Z,4.97
2023-01-11T07:23:02.079Z,5.20
2023-01-11T07:24:12.462Z,5.75
2023-01-11T07:25:30.368Z,5.35
2023-01-11T07:26:41.529Z,6.18
2023-01-11T07:27:45.367Z,5.63
2023-01-11T07:28:48.785Z,6.07
2023-01-11T07:30:00.414Z,5.63
2023-01-11T07:31:03.900Z,5.80
2023-01-11T07:32:06.869Z,6.00
2023-01-11T07:33:11.858Z,5.32
2023-01-11T07:34:14.717Z,6.35
2023-01-11T07:35:24.393Z,6.05
2023-01-11T07:36:27.859Z,6.15
2023-01-11T07:37:32.721Z,6.50
2023-01-11T07:38:37.487Z,5.78
2023-01-11T07:39:46.461Z,6.18
2023-01-11T07:40:49.959Z,6.07
2023-01-11T07:42:10.992Z,6.15
2023-01-11T07:43:19.424Z,5.72
2023-01-11T07:44:21.957Z,5.38
2023-01-11T07:45:44.633Z,5.72
2023-01-11T07:46:48.895Z,5.68
2023-01-11T07:47:51.668Z,5.82
2023-01-11T07:48:55.064Z,6.07
2023-01-11T07:49:57.719Z,6.72
2023-01-11T07:51:07.383Z,6.13
2023-01-11T07:52:16.379Z,5.93
2023-01-11T07:53:20.070Z,6.13
2023-01-11T07:54:25.056Z,6.05
2023-01-11T07:55:28.496Z,5.75
2023-01-11T07:56:31.507Z,6.38
2023-01-11T07:57:43.405Z,6.15
2023-01-11T07:58:46.838Z,6.65
2023-01-11T07:59:49.294Z,6.07
2023-01-11T08:00:53.172Z,6.47
2023-01-11T08:02:02.429Z,5.80
2023-01-11T08:03:06.038Z,5.82
2023-01-11T08:04:15.753Z,6.18
2023-01-11T08:05:19.181Z,6.40
2023-01-11T08:06:22.596Z,5.25
2023-01-11T08:07:31.384Z,6.70
2023-01-11T08:08:41.387Z,6.13
2023-01-11T08:09:45.280Z,5.22
2023-01-11T08:11:08.704Z,6.38
2023-01-11T08:12:36.411Z,6.35
2023-01-11T08:13:57.560Z,5.40
2023-01-11T08:15:00.083Z,5.45
2023-01-11T08:16:03.603Z,5.72
2023-01-11T08:17:06.594Z,5.70
2023-01-11T08:18:18.376Z,5.57
2023-01-11T08:19:22.195Z,5.45
2023-01-11T08:20:27.078Z,5.72
2023-01-11T08:21:29.746Z,5.15
2023-01-11T08:22:39.365Z,5.22
2023-01-11T08:23:43.148Z,5.47
2023-01-11T08:24:53.798Z,5.97
2023-01-11T08:26:03.932Z,5.15
2023-01-11T08:27:06.658Z,4.95
2023-01-11T08:28:16.378Z,6.03
2023-01-11T08:29:19.407Z,5.40
2023-01-11T08:30:23.307Z,6.10
2023-01-11T08:31:26.345Z,5.85
2023-01-11T08:32:36.403Z,5.28
2023-01-11T08:33:38.948Z,4.85
2023-01-11T08:34:42.573Z,5.05
2023-01-11T08:35:46.236Z,5.13
2023-01-11T08:36:49.076Z,4.50
2023-01-11T08:37:59.542Z,4.88
2023-01-11T08:39:02.273Z,5.03
2023-01-11T08:40:07.406Z,5.20
2023-01-11T08:41:10.966Z,5.13
2023-01-11T08:42:14.412Z,5.47
2023-01-11T08:43:24.386Z,5.70
2023-01-11T08:44:35.265Z,5.13
2023-01-11T08:45:38.760Z,4.80
2023-01-11T08:46:41.323Z,4.97
2023-01-11T08:47:51.365Z,5.18
2023-01-11T08:48:53.944Z,5.03
2023-01-11T08:49:57.412Z,5.35
2023-01-11T08:51:06.615Z,4.82
2023-01-11T08:52:18.365Z,5.80
2023-01-11T08:53:20.938Z,6.35
2023-01-11T08:54:24.941Z,4.90
2023-01-11T08:55:30.775Z,4.82
2023-01-11T08:56:34.285Z,5.07
2023-01-11T08:57:44.362Z,5.45
2023-01-11T08:58:46.901Z,5.15
2023-01-11T08:59:56.468Z,4.88
2023-01-11T09:01:00.123Z,4.90
2023-01-11T09:02:04.536Z,5.07
2023-01-11T09:03:07.182Z,4.82
2023-01-11T09:04:23.788Z,5.30
2023-01-11T09:05:35.427Z,4.80
2023-01-11T09:06:38.883Z,6.03
2023-01-11T09:07:48.401Z,5.40
2023-01-11T09:08:51.831Z,5.70
2023-01-11T09:09:55.277Z,5.88
2023-01-11T09:11:00.162Z,5.93
2023-01-11T09:12:11.399Z,5.15
2023-01-11T09:13:20.397Z,6.93
2023-01-11T09:14:24.515Z,5.72
2023-01-11T09:15:28.094Z,4.80
2023-01-11T09:16:30.627Z,4.65
2023-01-11T09:17:41.386Z,4.93
2023-01-11T09:18:50.404Z,5.57
2023-01-11T09:20:00.416Z,5.38
2023-01-11T09:21:02.921Z,5.82
2023-01-11T09:22:06.396Z,5.15
2023-01-11T09:23:08.913Z,4.72
2023-01-11T09:24:19.391Z,5.13
2023-01-11T09:25:36.408Z,4.70
2023-01-11T09:26:47.625Z,5.18
2023-01-11T09:27:51.197Z,5.80
2023-01-11T09:28:54.768Z,5.72
2023-01-11T09:30:05.557Z,5.95
2023-01-11T09:31:09.424Z,5.03
2023-01-11T09:32:13.226Z,5.45
2023-01-11T09:33:16.966Z,5.47
2023-01-11T09:34:27.392Z,5.25
2023-01-11T09:35:30.874Z,5.15
2023-01-11T09:36:42.368Z,4.93
2023-01-11T09:37:49.450Z,5.57
2023-01-11T09:38:56.808Z,4.80
2023-01-11T09:40:08.391Z,4.75
2023-01-11T09:41:19.591Z,5.47
2023-01-11T09:42:39.647Z,5.55
2023-01-11T09:43:46.286Z,4.95
2023-01-11T09:44:52.645Z,5.03
2023-01-11T09:45:58.834Z,5.25
2023-01-11T09:47:20.460Z,4.78
2023-01-11T09:48:29.053Z,4.78
2023-01-11T09:49:35.276Z,4.90
2023-01-11T09:50:49.621Z,4.38
2023-01-11T09:51:53.977Z,4.47
2023-01-11T09:52:59.501Z,4.82
2023-01-11T09:54:05.998Z,4.60
2023-01-11T09:55:15.439Z,3.72
2023-01-11T09:56:31.472Z,3.80
2023-01-11T09:57:42.206Z,3.95
2023-01-11T09:58:53.549Z,4.25
2023-01-11T10:00:06.167Z,3.70
2023-01-11T10:01:21.594Z,3.97
2023-01-11T10:02:32.692Z,3.92
2023-01-11T10:04:06.445Z,4.10
2023-01-11T10:05:37.049Z,3.10
2023-01-11T10:06:44.367Z,3.80
2023-01-11T10:18:26.283Z,4.43
2023-01-11T10:18:27.915Z,3.70
2023-01-11T10:18:31.017Z,4.03
2023-01-11T10:19:12.349Z,3.72
2023-01-11T10:20:24.400Z,3.60
2023-01-11T10:21:29.964Z,3.50
2023-01-11T10:22:39.645Z,3.83
2023-01-11T10:23:48.495Z,3.97
2023-01-11T10:25:01.739Z,3.50
2023-01-11T10:26:19.733Z,3.58
2023-01-11T10:27:23.980Z,3.70
2023-01-11T10:28:35.221Z,3.58
2023-01-11T10:29:53.662Z,3.50
2023-01-11T10:31:11.326Z,3.95
2023-01-11T10:32:42.407Z,3.60
2023-01-11T10:33:57.508Z,3.97
2023-01-11T10:35:17.792Z,4.13
2023-01-11T10:36:42.443Z,4.18
2023-01-11T10:37:54.587Z,4.38
2023-01-11T10:39:12.137Z,4.07
2023-01-11T10:40:34.897Z,3.70
2023-01-11T10:41:49.389Z,4.38
2023-01-11T10:42:55.461Z,4.75
2023-01-11T10:44:11.418Z,4.32
2023-01-11T10:45:18.683Z,5.63
2023-01-11T10:46:23.458Z,4.00
2023-01-11T10:47:29.169Z,4.47
2023-01-11T10:48:35.460Z,4.25
2023-01-11T10:49:51.391Z,4.35
2023-01-11T10:50:59.394Z,4.10
2023-01-11T10:52:12.553Z,4.47
2023-01-11T10:53:20.595Z,4.35
2023-01-11T10:54:32.381Z,4.65
2023-01-11T10:55:43.363Z,4.50
2023-01-11T10:57:01.702Z,4.40
2023-01-11T10:58:13.771Z,5.20
2023-01-11T10:59:33.539Z,5.13
2023-01-11T11:00:43.295Z,4.95
2023-01-11T11:01:54.492Z,4.75
2023-01-11T11:03:14.567Z,4.93
2023-01-11T11:04:27.073Z,5.15
2023-01-11T11:05:41.407Z,4.93
2023-01-11T11:06:50.457Z,5.50
2023-01-11T11:07:57.210Z,5.20
2023-01-11T11:09:06.743Z,5.18
2023-01-11T11:10:21.559Z,5.03
2023-01-11T11:11:31.609Z,4.78
2023-01-11T11:12:38.842Z,4.57
2023-01-11T11:13:48.742Z,5.03
2023-01-11T11:15:01.438Z,5.13
2023-01-11T11:16:09.248Z,5.25
2023-01-11T11:17:24.459Z,4.63
2023-01-11T11:18:28.354Z,4.43
2023-01-11T11:19:33.378Z,5.28
2023-01-11T11:20:36.805Z,5.30
2023-01-11T11:21:39.857Z,5.32
2023-01-11T11:22:51.404Z,5.18
2023-01-11T11:23:57.298Z,5.28
2023-01-11T11:25:22.958Z,5.20
2023-01-11T11:26:36.464Z,4.30
2023-01-11T11:27:43.276Z,5.00
2023-01-11T11:29:01.165Z,5.43
2023-01-11T11:30:04.692Z,5.70
2023-01-11T11:31:17.428Z,5.25
2023-01-11T11:32:22.771Z,5.18
2023-01-11T11:33:34.400Z,5.10
2023-01-11T11:34:36.884Z,4.85
2023-01-11T11:35:42.149Z,5.88
2023-01-11T11:36:45.161Z,5.13
2023-01-11T11:37:55.452Z,5.10
2023-01-11T11:39:10.241Z,5.30
2023-01-11T11:40:28.969Z,5.22
2023-01-11T11:41:46.408Z,5.38
2023-01-11T11:42:49.829Z,4.70
2023-01-11T11:43:59.399Z,5.00
2023-01-11T11:45:18.926Z,4.68
2023-01-11T11:46:26.025Z,6.25
2023-01-11T11:47:28.581Z,5.82
2023-01-11T11:48:39.416Z,4.82
2023-01-11T11:49:42.294Z,4.72
2023-01-11T11:50:46.109Z,5.10
2023-01-11T11:51:50.080Z,5.72
2023-01-11T11:52:54.025Z,4.93
2023-01-11T11:54:04.392Z,4.82
2023-01-11T11:55:14.410Z,5.10
2023-01-11T11:56:19.821Z,5.80
2023-01-11T11:57:25.141Z,4.90
2023-01-11T11:58:29.624Z,6.30
2023-01-11T11:59:39.409Z,5.30
2023-01-11T12:00:52.433Z,5.38
2023-01-11T12:02:02.326Z,5.57
2023-01-11T12:03:07.997Z,5.88
2023-01-11T12:04:14.051Z,4.85
2023-01-11T12:05:17.678Z,4.95
2023-01-11T12:06:30.418Z,6.25
2023-01-11T12:07:49.881Z,5.50
2023-01-11T12:08:59.363Z,4.97
2023-01-11T12:10:12.425Z,4.80
2023-01-11T12:11:27.417Z,4.45
2023-01-11T12:12:40.526Z,4.47
2023-01-11T12:13:45.049Z,5.00
2023-01-11T12:15:04.932Z,4.80
2023-01-11T12:16:09.516Z,5.35
2023-01-11T12:17:32.425Z,5.57
2023-01-11T12:18:41.660Z,5.07
2023-01-11T12:19:47.872Z,5.07
2023-01-11T12:20:58.409Z,4.65
2023-01-11T12:22:31.725Z,5.05
2023-01-11T12:23:35.145Z,4.68
2023-01-11T12:24:38.605Z,4.80
2023-01-11T12:26:20.395Z,4.70
2023-01-11T12:27:38.421Z,4.82
2023-01-11T12:28:48.995Z,4.88
2023-01-11T12:29:58.991Z,4.57
2023-01-11T12:31:05.817Z,4.68
2023-01-11T12:32:30.414Z,5.15
2023-01-11T12:33:39.982Z,4.90
2023-01-11T12:35:01.593Z,4.57
2023-01-11T12:36:07.407Z,4.75
2023-01-11T12:37:16.925Z,4.72
2023-01-11T12:38:31.515Z,4.85
2023-01-11T12:39:40.025Z,5.45
2023-01-11T12:40:47.565Z,4.93
2023-01-11T12:42:00.282Z,5.05
2023-01-11T12:43:17.306Z,5.30
2023-01-11T12:44:33.408Z,4.28
2023-01-11T12:45:41.977Z,4.97
2023-01-11T12:46:54.845Z,5.53
2023-01-11T12:48:09.102Z,5.07
2023-01-11T12:49:26.435Z,4.95
2023-01-11T12:50:32.377Z,4.95
2023-01-11T12:51:43.714Z,4.80
2023-01-11T12:52:53.345Z,5.25
2023-01-11T12:54:02.368Z,5.18
2023-01-11T12:55:22.415Z,5.63
2023-01-11T12:56:30.726Z,4.85
2023-01-11T12:57:36.184Z,5.18
2023-01-11T12:58:44.424Z,5.43
2023-01-11T13:00:00.995Z,4.72
2023-01-11T13:01:19.491Z,4.70
2023-01-11T13:02:30.692Z,4.82
2023-01-11T13:03:43.086Z,4.82
2023-01-11T13:04:57.369Z,5.40
2023-01-11T13:06:09.478Z,4.60
2023-01-11T13:07:17.027Z,5.00
2023-01-11T13:08:23.725Z,5.38
2023-01-11T13:09:32.414Z,5.95
2023-01-11T13:10:38.658Z,4.80
2023-01-11T13:11:53.404Z,5.05
2023-01-11T13:13:00.387Z,4.68
2023-01-11T13:14:09.437Z,5.10
2023-01-11T13:15:21.746Z,4.75
2023-01-11T13:16:29.364Z,4.70
2023-01-11T13:17:43.466Z,4.63
2023-01-11T13:18:48.748Z,4.80
2023-01-11T13:19:54.623Z,5.32
2023-01-11T13:21:02.529Z,5.15
2023-01-11T13:22:07.841Z,5.57
2023-01-11T13:23:35.463Z,5.10
2023-01-11T13:24:45.736Z,5.18
2023-01-11T13:25:55.817Z,5.32
2023-01-11T13:27:00.989Z,5.00
2023-01-11T13:28:16.664Z,5.43
2023-01-11T13:29:32.416Z,5.15
2023-01-11T13:30:36.292Z,4.40
2023-01-11T13:31:40.145Z,4.97
2023-01-11T13:32:46.269Z,5.30
2023-01-11T13:33:59.517Z,5.13
2023-01-11T13:35:13.405Z,5.43
2023-01-11T13:36:23.753Z,5.63
2023-01-11T13:37:28.965Z,5.72
2023-01-11T13:38:39.550Z,7.35
2023-01-11T13:39:52.415Z,6.82
2023-01-11T13:40:59.563Z,6.07
2023-01-11T13:42:05.258Z,6.50
2023-01-11T13:43:10.995Z,6.03
2023-01-11T13:44:16.022Z,5.82
2023-01-11T13:45:27.424Z,6.55
2023-01-11T13:46:40.547Z,7.75
2023-01-11T13:47:46.099Z,6.90
2023-01-11T13:48:53.426Z,6.90
2023-01-11T13:50:06.491Z,7.75
2023-01-11T13:51:17.500Z,6.53
2023-01-11T13:52:22.433Z,8.27
2023-01-11T13:53:29.528Z,9.82
2023-01-11T13:54:37.596Z,9.88
2023-01-11T13:55:51.431Z,8.60
2023-01-11T13:57:00.253Z,11.65
2023-01-11T13:58:06.734Z,13.63
2023-01-11T13:59:12.851Z,6.50
2023-01-11T14:00:23.357Z,7.15
2023-01-11T14:01:43.661Z,6.30
2023-01-11T14:02:50.039Z,6.18
2023-01-11T14:03:55.522Z,6.53
2023-01-11T14:04:59.981Z,6.95
2023-01-11T14:06:11.327Z,4.90
2023-01-11T14:07:28.397Z,6.13
2023-01-11T14:08:43.660Z,5.43
2023-01-11T14:09:57.103Z,5.70
2023-01-11T14:11:03.283Z,5.78
2023-01-11T14:12:15.584Z,5.43
2023-01-11T14:14:03.430Z,6.03
2023-01-11T14:15:16.825Z,5.93
2023-01-11T14:16:24.278Z,6.07
2023-01-11T14:17:49.419Z,5.25
2023-01-11T14:18:56.515Z,5.63
2023-01-11T14:20:04.623Z,5.40
2023-01-11T14:21:11.166Z,6.13
2023-01-11T14:22:22.426Z,6.00
2023-01-11T14:23:30.514Z,6.03
2023-01-11T14:24:34.191Z,6.30
2023-01-11T14:25:46.835Z,5.40
2023-01-11T14:26:57.942Z,6.32
2023-01-11T14:28:26.432Z,6.43
2023-01-11T14:29:42.924Z,6.40
2023-01-11T14:30:56.480Z,6.80
2023-01-11T14:32:14.441Z,6.80
2023-01-11T14:33:24.999Z,7.57
2023-01-11T14:34:59.393Z,6.80
2023-01-11T14:36:13.193Z,6.55
2023-01-11T14:37:24.673Z,6.18
2023-01-11T14:38:47.416Z,6.10
2023-01-11T14:40:14.407Z,6.43
2023-01-11T14:41:36.084Z,6.03
2023-01-11T14:42:57.868Z,5.80
2023-01-11T14:44:08.588Z,6.22
2023-01-11T14:45:25.396Z,5.88
2023-01-11T14:46:47.294Z,5.50
2023-01-11T14:48:00.131Z,7.05
2023-01-11T14:49:10.819Z,6.57
2023-01-11T14:50:19.239Z,6.22
2023-01-11T14:51:33.505Z,6.78
2023-01-11T14:52:40.418Z,6.60
2023-01-11T14:53:53.510Z,6.50
2023-01-11T14:54:57.198Z,6.68
2023-01-11T14:56:06.423Z,6.35
2023-01-11T14:57:30.712Z,6.22
2023-01-11T14:58:34.722Z,6.03
2023-01-11T14:59:39.152Z,6.35
2023-01-11T15:01:01.068Z,5.70
2023-01-11T15:02:15.383Z,6.05
2023-01-11T15:03:33.559Z,6.70
2023-01-11T15:04:37.894Z,6.10
2023-01-11T15:05:47.038Z,6.30
2023-01-11T15:06:55.298Z,6.93
2023-01-11T15:08:25.866Z,6.50
2023-01-11T15:09:50.311Z,5.90
2023-01-11T15:11:04.417Z,7.03
2023-01-11T15:12:13.130Z,6.18